createdAt,value
2022-12-20T00:01:28.683Z,80.43
2022-12-20T00:03:57.435Z,83.07
2022-12-20T00:06:25.880Z,82.55
2022-12-20T00:09:01.658Z,85.47
2022-12-20T00:11:30.012Z,81.53
2022-12-20T00:13:57.558Z,91.85
2022-12-20T00:16:27.224Z,83.47
2022-12-20T00:18:57.501Z,87.82
2022-12-20T00:21:24.901Z,85.00
2022-12-20T00:23:52.681Z,86.18
2022-12-20T00:26:21.950Z,92.40
2022-12-20T00:28:49.158Z,92.50
2022-12-20T00:31:20.076Z,92.95
2022-12-20T00:33:49.402Z,97.93
2022-12-20T00:36:17.549Z,88.55
2022-12-20T00:38:47.519Z,88.60
2022-12-20T00:41:17.409Z,85.72
2022-12-20T00:43:44.559Z,96.45
2022-12-20T00:46:12.333Z,80.43
2022-12-20T00:48:39.204Z,94.57
2022-12-20T00:51:09.590Z,87.20
2022-12-20T00:53:36.910Z,82.25
2022-12-20T00:56:04.654Z,99.05
2022-12-20T00:58:33.783Z,90.88
2022-12-20T01:01:00.701Z,91.72
2022-12-20T01:03:28.231Z,83.03
2022-12-20T01:05:57.644Z,84.95
2022-12-20T01:08:26.102Z,86.47
2022-12-20T01:11:00.009Z,85.72
2022-12-20T01:13:27.661Z,80.75
2022-12-20T01:15:54.546Z,95.32
2022-12-20T01:18:21.571Z,91.45
2022-12-20T01:20:48.314Z,86.57
2022-12-20T01:23:15.026Z,93.72
2022-12-20T01:25:41.760Z,87.13
2022-12-20T01:28:08.520Z,98.95
2022-12-20T01:30:35.235Z,94.25
2022-12-20T01:33:01.929Z,94.03
2022-12-20T01:35:28.951Z,98.00
2022-12-20T01:37:55.867Z,90.22
2022-12-20T01:40:22.540Z,98.75
2022-12-20T01:42:49.166Z,93.00
2022-12-20T01:45:28.720Z,94.78
2022-12-20T01:47:57.441Z,95.53
2022-12-20T01:50:24.952Z,93.75
2022-12-20T01:52:53.191Z,88.72
2022-12-20T01:55:25.230Z,85.15
2022-12-20T01:58:00.432Z,87.80
2022-12-20T02:00:27.878Z,78.40
2022-12-20T02:02:58.821Z,80.93
2022-12-20T02:05:25.713Z,84.10
2022-12-20T02:07:55.271Z,94.18
2022-12-20T02:10:27.530Z,88.80
2022-12-20T02:13:05.836Z,89.63
2022-12-20T02:15:52.874Z,86.78
2022-12-20T02:18:28.447Z,93.70
2022-12-20T02:21:13.180Z,90.80
2022-12-20T02:23:58.502Z,90.68
2022-12-20T02:26:43.679Z,93.95
2022-12-20T02:29:22.457Z,103.15
2022-12-20T02:32:02.646Z,105.05
2022-12-20T02:34:33.042Z,99.13
2022-12-20T02:37:00.391Z,88.57
2022-12-20T02:39:30.417Z,106.60
2022-12-20T02:42:05.947Z,95.20
2022-12-20T02:44:54.705Z,100.15
2022-12-20T02:47:35.534Z,90.82
2022-12-20T02:50:04.411Z,97.45
2022-12-20T02:52:32.658Z,104.57
2022-12-20T02:55:01.296Z,98.25
2022-12-20T02:57:41.076Z,95.93
2022-12-20T03:00:15.003Z,104.53
2022-12-20T03:03:01.876Z,109.63
2022-12-20T03:05:29.268Z,99.45
2022-12-20T03:07:58.029Z,108.43
2022-12-20T03:10:25.808Z,110.53
2022-12-20T03:12:54.085Z,107.60
2022-12-20T03:15:20.801Z,108.28
2022-12-20T03:17:52.005Z,117.18
2022-12-20T03:20:18.963Z,116.05
2022-12-20T03:22:45.684Z,123.75
2022-12-20T03:25:12.475Z,131.60
2022-12-20T03:27:39.976Z,116.05
2022-12-20T03:30:07.510Z,114.25
2022-12-20T03:32:38.010Z,114.22
2022-12-20T03:35:06.241Z,118.40
2022-12-20T03:37:36.505Z,126.25
2022-12-20T03:40:06.121Z,130.38
2022-12-20T03:42:33.545Z,117.07
2022-12-20T03:45:00.551Z,114.45
2022-12-20T03:47:32.143Z,116.28
2022-12-20T03:49:59.009Z,118.07
2022-12-20T03:52:27.441Z,135.10
2022-12-20T03:54:54.227Z,122.05
2022-12-20T03:57:26.435Z,135.73
2022-12-20T03:59:55.101Z,124.07
2022-12-20T04:02:22.927Z,129.77
2022-12-20T04:04:50.262Z,132.68
2022-12-20T04:07:17.907Z,144.25
2022-12-20T04:09:46.621Z,129.38
2022-12-20T04:12:15.033Z,131.60
2022-12-20T04:14:42.716Z,130.80
2022-12-20T04:17:11.557Z,140.10
2022-12-20T04:19:39.039Z,138.18
2022-12-20T04:22:07.366Z,140.93
2022-12-20T04:24:49.126Z,130.98
2022-12-20T04:27:38.378Z,129.82
2022-12-20T04:30:07.776Z,130.52
2022-12-20T04:32:34.771Z,131.65
2022-12-20T04:35:02.072Z,139.77
2022-12-20T04:37:30.617Z,138.07
2022-12-20T04:39:58.425Z,133.70
2022-12-20T04:42:39.845Z,133.52
2022-12-20T04:45:08.317Z,136.13
2022-12-20T04:47:37.586Z,140.95
2022-12-20T04:50:07.209Z,139.80
2022-12-20T04:52:52.331Z,124.22
2022-12-20T04:55:19.264Z,136.30
2022-12-20T04:57:46.221Z,123.38
2022-12-20T05:00:15.447Z,128.30
2022-12-20T05:02:47.195Z,124.60
2022-12-20T05:05:17.486Z,114.15
2022-12-20T05:07:49.392Z,122.32
2022-12-20T05:10:18.898Z,125.88
2022-12-20T05:12:48.754Z,123.57
2022-12-20T05:15:24.427Z,131.50
2022-12-20T05:17:51.718Z,126.30
2022-12-20T05:20:18.969Z,125.85
2022-12-20T05:23:05.985Z,125.40
2022-12-20T05:26:10.171Z,126.47
2022-12-20T05:28:38.656Z,126.50
2022-12-20T05:31:06.513Z,118.55
2022-12-20T05:33:35.474Z,120.28
2022-12-20T05:36:03.825Z,123.70
2022-12-20T05:38:30.624Z,120.32
2022-12-20T05:40:58.196Z,113.93
2022-12-20T05:43:24.951Z,122.22
2022-12-20T05:45:53.312Z,116.65
2022-12-20T05:48:29.545Z,115.03
2022-12-20T05:50:56.459Z,116.47
2022-12-20T05:53:28.734Z,123.97
2022-12-20T05:55:58.853Z,117.88
2022-12-20T05:58:30.819Z,116.88
2022-12-20T06:01:07.959Z,113.40
2022-12-20T06:03:39.613Z,124.57
2022-12-20T06:06:24.757Z,112.35
2022-12-20T06:08:52.415Z,113.97
2022-12-20T06:11:30.379Z,121.35
2022-12-20T06:14:05.567Z,116.18
2022-12-20T06:16:34.387Z,119.75
2022-12-20T06:19:02.593Z,110.75
2022-12-20T06:21:32.152Z,112.43
2022-12-20T06:23:59.790Z,107.53
2022-12-20T06:26:26.628Z,106.25
2022-12-20T06:28:57.179Z,118.85
2022-12-20T06:31:30.975Z,115.07
2022-12-20T06:33:57.839Z,120.63
2022-12-20T06:36:29.138Z,110.25
2022-12-20T06:38:56.029Z,117.68
2022-12-20T06:41:22.821Z,108.53
2022-12-20T06:43:50.010Z,101.45
2022-12-20T06:46:16.954Z,118.22
2022-12-20T06:48:46.016Z,113.57
2022-12-20T06:51:13.793Z,106.65
2022-12-20T06:53:40.781Z,106.70
2022-12-20T06:56:07.744Z,105.18
2022-12-20T06:58:34.479Z,100.40
2022-12-20T07:01:01.752Z,112.90
2022-12-20T07:03:28.734Z,111.05
2022-12-20T07:05:55.903Z,108.45
2022-12-20T07:08:23.847Z,106.72
2022-12-20T07:10:52.881Z,106.10
2022-12-20T07:13:20.321Z,108.00
2022-12-20T07:15:47.103Z,99.25
2022-12-20T07:18:13.795Z,106.95
2022-12-20T07:20:40.758Z,103.22
2022-12-20T07:23:07.511Z,106.90
2022-12-20T07:25:34.345Z,99.15
2022-12-20T07:28:01.004Z,98.43
2022-12-20T07:30:27.724Z,92.20
2022-12-20T07:32:54.743Z,105.78
2022-12-20T07:35:21.509Z,107.97
2022-12-20T07:37:48.276Z,101.93
2022-12-20T07:40:16.484Z,93.82
2022-12-20T07:42:48.492Z,95.85
2022-12-20T07:45:16.275Z,105.03
2022-12-20T07:47:44.084Z,94.03
2022-12-20T07:50:11.986Z,100.03
2022-12-20T07:52:41.278Z,101.93
2022-12-20T07:55:09.354Z,90.15
2022-12-20T07:58:04.831Z,87.57
2022-12-20T08:00:32.172Z,86.97
2022-12-20T08:03:22.613Z,99.60
2022-12-20T08:05:55.327Z,88.38
2022-12-20T08:08:22.643Z,92.85
2022-12-20T08:10:50.272Z,97.35
2022-12-20T08:13:17.682Z,99.32
2022-12-20T08:15:44.753Z,99.18
2022-12-20T08:18:12.317Z,96.40
2022-12-20T08:20:40.276Z,94.75
2022-12-20T08:23:07.272Z,96.35
2022-12-20T08:25:41.187Z,97.82
2022-12-20T08:28:11.461Z,94.43
2022-12-20T08:30:38.582Z,102.43
2022-12-20T08:33:05.855Z,96.50
2022-12-20T08:35:59.455Z,101.82
2022-12-20T08:38:29.266Z,90.05
2022-12-20T08:40:57.303Z,92.82
2022-12-20T08:43:24.871Z,97.03
2022-12-20T08:45:55.663Z,90.05
2022-12-20T08:48:23.094Z,96.70
2022-12-20T08:50:58.781Z,83.22
2022-12-20T08:53:26.156Z,99.00
2022-12-20T08:55:53.375Z,95.28
2022-12-20T08:58:21.127Z,93.50
2022-12-20T09:00:47.798Z,87.95
2022-12-20T09:03:15.478Z,89.15
2022-12-20T09:05:47.317Z,94.32
2022-12-20T09:08:15.528Z,89.75
2022-12-20T09:10:44.253Z,85.10
2022-12-20T09:13:11.544Z,86.18
2022-12-20T09:15:38.467Z,93.32
2022-12-20T09:18:05.829Z,85.88
2022-12-20T09:20:33.093Z,86.30
2022-12-20T09:23:01.581Z,97.40
2022-12-20T09:25:30.218Z,87.45
2022-12-20T09:27:57.571Z,90.63
2022-12-20T09:30:24.889Z,85.85
2022-12-20T09:32:51.705Z,82.60
2022-12-20T09:35:23.019Z,77.95
2022-12-20T09:37:50.236Z,85.07
2022-12-20T09:40:24.396Z,89.03
2022-12-20T09:42:52.063Z,84.35
2022-12-20T09:45:29.617Z,81.13
2022-12-20T09:47:56.759Z,83.18
2022-12-20T09:51:22.385Z,75.32
2022-12-20T09:54:22.603Z,85.13
2022-12-20T09:57:09.562Z,77.80
2022-12-20T09:59:45.978Z,81.22
2022-12-20T10:05:42.879Z,84.63
2022-12-20T10:08:34.687Z,91.22
2022-12-20T10:11:26.719Z,86.95
2022-12-20T10:14:45.972Z,86.63
2022-12-20T10:17:45.101Z,78.80
2022-12-20T10:20:36.734Z,81.57
2022-12-20T10:23:07.659Z,80.55
2022-12-20T10:25:35.503Z,84.45
2022-12-20T10:28:12.187Z,80.13
2022-12-20T10:30:39.040Z,86.10
2022-12-20T10:33:05.902Z,84.28
2022-12-20T10:35:41.490Z,79.50
2022-12-20T10:38:12.824Z,78.72
2022-12-20T10:43:44.925Z,76.22
2022-12-20T10:46:13.707Z,78.03
2022-12-20T10:48:42.597Z,84.05
2022-12-20T10:51:16.842Z,79.57
2022-12-20T10:54:01.537Z,78.43
2022-12-20T10:56:33.618Z,82.30
2022-12-20T10:59:28.725Z,79.40
2022-12-20T11:01:55.828Z,78.45
2022-12-20T11:04:34.945Z,79.63
2022-12-20T11:07:21.562Z,85.82
2022-12-20T11:09:58.868Z,79.85
2022-12-20T11:12:25.881Z,80.70
2022-12-20T11:15:19.733Z,81.68
2022-12-20T11:17:51.603Z,82.80
2022-12-20T11:20:45.840Z,81.30
2022-12-20T11:23:30.763Z,82.28
2022-12-20T11:26:41.900Z,75.97
2022-12-20T11:29:17.766Z,77.22
2022-12-20T11:31:44.544Z,75.82
2022-12-20T11:34:44.280Z,78.70
2022-12-20T11:37:21.909Z,74.03
2022-12-20T11:40:08.281Z,78.70
2022-12-20T11:43:00.400Z,78.20
2022-12-20T11:45:57.043Z,79.68
2022-12-20T11:48:52.912Z,79.65
2022-12-20T11:51:30.494Z,80.60
2022-12-20T11:54:10.531Z,76.97
2022-12-20T11:56:45.106Z,72.43
2022-12-20T11:59:19.012Z,72.40
2022-12-20T12:01:53.663Z,75.28
2022-12-20T12:04:26.696Z,84.80
2022-12-20T12:07:12.897Z,80.97
2022-12-20T12:10:07.911Z,75.57
2022-12-20T12:12:52.990Z,73.18
2022-12-20T12:15:40.845Z,78.47
2022-12-20T12:18:29.269Z,70.28
2022-12-20T12:21:22.480Z,75.47
2022-12-20T12:24:27.525Z,72.22
2022-12-20T12:26:54.609Z,62.75
2022-12-20T12:29:23.308Z,64.75
2022-12-20T12:32:18.077Z,61.80
2022-12-20T12:35:06.116Z,68.85
2022-12-20T12:37:49.805Z,68.65
2022-12-20T12:43:16.890Z,68.75
2022-12-20T12:45:48.374Z,71.22
2022-12-20T12:48:34.507Z,62.10
2022-12-20T12:51:02.699Z,68.97
2022-12-20T12:53:45.785Z,66.57
2022-12-20T12:56:45.174Z,62.90
2022-12-20T12:59:33.904Z,68.95
2022-12-20T13:02:04.106Z,67.07
2022-12-20T13:04:52.384Z,65.57
2022-12-20T13:07:45.532Z,65.50
2022-12-20T13:10:15.327Z,67.15
2022-12-20T13:12:42.039Z,60.33
2022-12-20T13:15:22.511Z,66.13
2022-12-20T13:17:58.223Z,63.92
2022-12-20T13:20:36.468Z,67.55
2022-12-20T13:23:09.124Z,65.45
2022-12-20T13:25:38.669Z,59.92
2022-12-20T13:28:24.553Z,64.15
2022-12-20T13:30:54.346Z,64.38
2022-12-20T13:33:41.987Z,59.55
2022-12-20T13:36:11.860Z,62.75
2022-12-20T13:38:55.341Z,62.53
2022-12-20T13:41:35.695Z,60.40
2022-12-20T13:44:23.669Z,65.70
2022-12-20T13:47:03.181Z,64.90
2022-12-20T13:49:43.759Z,69.07
2022-12-20T13:52:13.467Z,65.63
2022-12-20T13:54:45.468Z,64.10
2022-12-20T13:57:29.181Z,64.28
2022-12-20T14:02:37.022Z,64.82
2022-12-20T14:05:31.252Z,69.40
2022-12-20T14:08:02.721Z,66.50
2022-12-20T14:10:31.512Z,70.65
2022-12-20T14:12:59.102Z,70.78
2022-12-20T14:15:29.134Z,70.03
2022-12-20T14:17:56.445Z,65.55
2022-12-20T14:20:30.777Z,69.55
2022-12-20T14:23:10.604Z,71.05
2022-12-20T14:25:40.396Z,66.18
2022-12-20T14:28:27.673Z,80.22
2022-12-20T14:30:55.865Z,71.70
2022-12-20T14:33:32.157Z,68.93
2022-12-20T14:36:22.279Z,68.95
2022-12-20T14:38:51.674Z,70.45
2022-12-20T14:41:38.341Z,72.43
2022-12-20T14:44:07.918Z,65.63
2022-12-20T14:46:43.583Z,69.00
2022-12-20T14:49:28.243Z,87.15
2022-12-20T14:52:12.386Z,73.85
2022-12-20T14:55:10.849Z,74.75
2022-12-20T14:57:39.598Z,76.22
2022-12-20T15:00:07.361Z,79.72
2022-12-20T15:02:42.026Z,73.88
2022-12-20T15:05:38.381Z,73.70
2022-12-20T15:08:22.638Z,77.00
2022-12-20T15:11:03.634Z,79.47
2022-12-20T15:13:38.401Z,82.45
2022-12-20T15:16:18.500Z,81.28
2022-12-20T15:18:49.126Z,83.53
2022-12-20T15:21:36.332Z,78.13
2022-12-20T15:24:08.109Z,81.57
2022-12-20T15:26:35.893Z,81.05
2022-12-20T15:29:04.448Z,77.90
2022-12-20T15:31:34.113Z,77.13
2022-12-20T15:34:03.814Z,81.65
2022-12-20T15:36:34.067Z,74.15
2022-12-20T15:39:12.579Z,77.15
2022-12-20T15:41:43.044Z,77.32
2022-12-20T15:44:22.263Z,76.95
2022-12-20T15:46:50.710Z,85.97
2022-12-20T15:49:21.332Z,81.47
2022-12-20T15:51:49.938Z,74.80
2022-12-20T15:54:37.140Z,77.75
2022-12-20T15:57:09.847Z,80.03
2022-12-20T16:02:29.212Z,76.05
2022-12-20T16:04:56.568Z,65.70
2022-12-20T16:07:24.168Z,76.93
2022-12-20T16:09:51.183Z,77.65
2022-12-20T16:12:30.084Z,78.88
2022-12-20T16:14:57.252Z,85.63
2022-12-20T16:17:24.311Z,85.97
2022-12-20T16:19:51.138Z,84.53
2022-12-20T16:22:20.279Z,89.03
2022-12-20T16:24:47.222Z,87.85
2022-12-20T16:27:14.450Z,86.40
2022-12-20T16:29:41.663Z,84.90
2022-12-20T16:32:19.981Z,109.25
2022-12-20T16:34:47.431Z,93.68
2022-12-20T16:37:14.370Z,83.10
2022-12-20T16:39:41.656Z,88.90
2022-12-20T16:42:18.120Z,104.28
2022-12-20T16:44:46.096Z,104.07
2022-12-20T16:47:14.461Z,97.43
2022-12-20T16:49:44.632Z,93.82
2022-12-20T16:52:18.833Z,94.60
2022-12-20T16:54:45.547Z,100.85
2022-12-20T16:57:12.278Z,97.03
2022-12-20T16:59:39.064Z,100.15
2022-12-20T17:02:26.601Z,99.95
2022-12-20T17:04:53.513Z,93.18
2022-12-20T17:07:20.269Z,99.05
2022-12-20T17:12:31.124Z,87.63
2022-12-20T17:14:58.079Z,83.97
2022-12-20T17:17:25.398Z,86.18
2022-12-20T17:19:52.216Z,85.30
2022-12-20T17:22:25.629Z,87.63
2022-12-20T17:27:19.344Z,79.82
2022-12-20T17:29:46.192Z,94.18
2022-12-20T17:32:24.743Z,89.10
2022-12-20T17:34:53.101Z,92.25
2022-12-20T17:37:21.656Z,93.18
2022-12-20T17:39:50.055Z,93.10
2022-12-20T17:42:17.324Z,87.13
2022-12-20T17:44:47.254Z,96.38
2022-12-20T17:47:17.004Z,88.10
2022-12-20T17:49:43.941Z,93.43
2022-12-20T17:52:15.160Z,87.75
2022-12-20T17:54:41.874Z,98.55
2022-12-20T17:57:15.986Z,87.35
2022-12-20T17:59:44.087Z,95.85
2022-12-20T18:02:42.372Z,91.68
2022-12-20T18:05:13.210Z,97.10
2022-12-20T18:07:41.095Z,96.25
2022-12-20T18:10:08.820Z,84.78
2022-12-20T18:12:37.787Z,94.82
2022-12-20T18:15:07.672Z,93.88
2022-12-20T18:17:34.802Z,105.03
2022-12-20T18:20:02.780Z,100.90
2022-12-20T18:22:34.641Z,106.38
2022-12-20T18:25:03.905Z,104.90
2022-12-20T18:27:31.573Z,105.90
2022-12-20T18:29:58.767Z,94.68
2022-12-20T18:32:27.111Z,98.43
2022-12-20T18:34:54.247Z,100.97
2022-12-20T18:37:23.147Z,101.28
2022-12-20T18:39:50.052Z,107.32
2022-12-20T18:42:16.911Z,104.80
2022-12-20T18:44:43.768Z,100.15
2022-12-20T18:47:11.569Z,92.50
2022-12-20T18:49:39.562Z,100.95
2022-12-20T18:52:06.549Z,102.05
2022-12-20T18:54:34.910Z,84.32
2022-12-20T18:57:06.186Z,86.95
2022-12-20T18:59:34.333Z,77.70
2022-12-20T19:02:03.582Z,79.00
2022-12-20T19:04:30.830Z,79.55
2022-12-20T19:06:58.905Z,92.43
2022-12-20T19:09:26.660Z,82.35
2022-12-20T19:11:57.487Z,89.45
2022-12-20T19:14:25.180Z,88.82
2022-12-20T19:16:52.143Z,86.78
2022-12-20T19:19:19.152Z,89.97
2022-12-20T19:21:45.976Z,90.38
2022-12-20T19:24:13.658Z,92.78
2022-12-20T19:26:42.353Z,95.18
2022-12-20T19:29:09.936Z,97.05
2022-12-20T19:31:38.144Z,89.32
2022-12-20T19:34:11.744Z,106.35
2022-12-20T19:36:45.940Z,94.43
2022-12-20T19:39:20.751Z,97.57
2022-12-20T19:42:15.578Z,95.60
2022-12-20T19:44:36.918Z,90.15
2022-12-20T19:47:06.688Z,101.50
2022-12-20T19:49:35.543Z,92.70
2022-12-20T19:52:03.147Z,90.78
2022-12-20T19:54:30.238Z,96.20
2022-12-20T19:57:01.233Z,89.40
2022-12-20T19:59:30.973Z,87.50
2022-12-20T20:02:03.659Z,91.90
2022-12-20T20:04:33.089Z,89.50
2022-12-20T20:07:06.208Z,88.65
2022-12-20T20:09:33.343Z,85.40
2022-12-20T20:12:07.127Z,79.95
2022-12-20T20:14:37.890Z,97.82
2022-12-20T20:17:04.773Z,83.15
2022-12-20T20:19:32.206Z,85.55
2022-12-20T20:22:03.575Z,86.95
2022-12-20T20:24:31.791Z,86.22
2022-12-20T20:26:59.782Z,85.05
2022-12-20T20:29:28.179Z,82.30
2022-12-20T20:31:56.241Z,82.72
2022-12-20T20:34:23.182Z,87.15
2022-12-20T20:36:50.149Z,90.43
2022-12-20T20:39:17.085Z,88.85
2022-12-20T20:41:44.218Z,88.05
2022-12-20T20:44:14.146Z,87.50
2022-12-20T20:46:41.043Z,84.63
2022-12-20T20:49:07.893Z,88.05
2022-12-20T20:51:35.031Z,87.93
2022-12-20T20:54:02.021Z,89.68
2022-12-20T20:56:30.338Z,83.25
2022-12-20T20:59:02.906Z,87.38
2022-12-20T21:01:33.059Z,89.03
2022-12-20T21:04:01.361Z,89.38
2022-12-20T21:06:41.012Z,89.45
2022-12-20T21:09:09.184Z,86.88
2022-12-20T21:11:37.188Z,87.07
2022-12-20T21:14:04.163Z,83.13
2022-12-20T21:16:31.101Z,81.25
2022-12-20T21:18:59.233Z,75.53
2022-12-20T21:21:27.507Z,79.03
2022-12-20T21:23:58.373Z,80.07
2022-12-20T21:26:25.633Z,77.10
2022-12-20T21:28:59.803Z,83.55
2022-12-20T21:31:29.315Z,84.65
2022-12-20T21:33:58.671Z,92.05
2022-12-20T21:36:25.912Z,86.97
2022-12-20T21:38:56.227Z,84.85
2022-12-20T21:41:25.151Z,82.97
2022-12-20T21:43:54.903Z,84.72
2022-12-20T21:46:21.806Z,82.55
2022-12-20T21:48:48.601Z,88.65
2022-12-20T21:51:19.426Z,92.45
2022-12-20T21:53:48.814Z,85.20
2022-12-20T21:56:16.066Z,81.00
2022-12-20T21:58:45.161Z,82.93
2022-12-20T22:01:14.416Z,81.13
2022-12-20T22:03:41.699Z,87.85
2022-12-20T22:06:08.636Z,88.65
2022-12-20T22:08:36.921Z,96.80
2022-12-20T22:11:09.804Z,88.82
2022-12-20T22:13:41.605Z,87.35
2022-12-20T22:16:18.006Z,87.90
2022-12-20T22:18:48.570Z,102.05
2022-12-20T22:21:16.005Z,111.82
2022-12-20T22:23:44.211Z,105.00
2022-12-20T22:26:19.402Z,112.30
2022-12-20T22:28:51.223Z,110.63
2022-12-20T22:31:20.912Z,104.55
2022-12-20T22:33:47.762Z,85.32
2022-12-20T22:36:16.120Z,81.32
2022-12-20T22:38:46.288Z,83.50
2022-12-20T22:41:24.547Z,88.63
2022-12-20T22:43:54.591Z,81.72
2022-12-20T22:49:05.596Z,78.68
2022-12-20T22:51:33.859Z,88.20
2022-12-20T22:54:00.890Z,81.90
2022-12-20T22:56:27.633Z,80.35
2022-12-20T22:58:54.304Z,86.53
2022-12-20T23:01:21.869Z,90.05
2022-12-20T23:03:49.382Z,95.30
2022-12-20T23:06:19.346Z,88.68
2022-12-20T23:08:46.602Z,84.93
2022-12-20T23:11:41.976Z,86.20
2022-12-20T23:14:33.861Z,89.85
2022-12-20T23:17:01.459Z,85.85
2022-12-20T23:19:28.797Z,90.60
2022-12-20T23:22:18.759Z,93.03
2022-12-20T23:24:46.560Z,85.68
2022-12-20T23:27:13.261Z,89.47
2022-12-20T23:29:40.670Z,96.43
2022-12-20T23:32:07.439Z,108.82
2022-12-20T23:34:35.402Z,95.88
2022-12-20T23:37:02.215Z,97.55
2022-12-20T23:39:28.931Z,101.20
2022-12-20T23:41:55.548Z,100.82
2022-12-20T23:44:22.272Z,102.22
2022-12-20T23:46:48.972Z,93.30
2022-12-20T23:49:15.723Z,97.05
2022-12-20T23:51:42.733Z,85.25
2022-12-20T23:54:11.642Z,101.68
2022-12-20T23:56:38.484Z,95.00
2022-12-20T23:59:05.147Z,97.25
